createdAt,value
2022-08-14T00:02:21.987Z,21.40
2022-08-14T00:05:28.063Z,21.00
2022-08-14T00:08:43.529Z,17.00
2022-08-14T00:11:50.235Z,25.60
2022-08-14T00:14:57.092Z,21.20
2022-08-14T00:18:02.175Z,16.00
2022-08-14T00:21:11.146Z,22.00
2022-08-14T00:24:14.798Z,21.80
2022-08-14T00:27:37.722Z,23.25
2022-08-14T00:30:42.810Z,26.50
2022-08-14T00:33:51.407Z,17.40
2022-08-14T00:36:56.049Z,20.20
2022-08-14T00:40:18.915Z,22.00
2022-08-14T00:43:31.552Z,18.80
2022-08-14T00:46:35.867Z,21.00
2022-08-14T00:49:43.026Z,23.40
2022-08-14T00:52:48.131Z,21.00
2022-08-14T00:55:56.807Z,20.00
2022-08-14T00:59:01.600Z,20.00
2022-08-14T01:02:09.363Z,21.40
2022-08-14T01:05:23.592Z,23.00
2022-08-14T01:08:51.236Z,22.40
2022-08-14T01:11:57.218Z,19.40
2022-08-14T01:15:09.800Z,22.60
2022-08-14T01:18:35.824Z,23.60
2022-08-14T01:21:47.369Z,22.00
2022-08-14T01:24:57.488Z,21.00
2022-08-14T01:28:01.306Z,22.80
2022-08-14T01:31:08.867Z,25.00
2022-08-14T01:35:18.769Z,24.50
2022-08-14T01:37:36.775Z,23.75
2022-08-14T01:40:48.583Z,24.20
2022-08-14T01:43:56.408Z,23.80
2022-08-14T01:47:01.911Z,25.80
2022-08-14T01:50:11.337Z,22.50
2022-08-14T01:53:19.711Z,20.40
2022-08-14T01:56:37.195Z,23.00
2022-08-14T01:59:44.738Z,23.25
2022-08-14T02:02:48.128Z,26.80
2022-08-14T02:06:04.136Z,26.80
2022-08-14T02:09:25.429Z,22.00
2022-08-14T02:12:30.983Z,24.80
2022-08-14T02:15:34.239Z,23.80
2022-08-14T02:18:37.978Z,24.00
2022-08-14T02:21:49.079Z,22.50
2022-08-14T02:24:55.361Z,30.80
2022-08-14T02:28:22.754Z,24.20
2022-08-14T02:31:28.472Z,23.80
2022-08-14T02:34:39.815Z,31.00
2022-08-14T02:37:48.026Z,28.60
2022-08-14T02:40:53.540Z,23.20
2022-08-14T02:44:01.023Z,23.50
2022-08-14T02:47:07.127Z,26.40
2022-08-14T02:50:18.402Z,25.60
2022-08-14T02:53:21.838Z,32.00
2022-08-14T02:56:30.210Z,23.00
2022-08-14T02:59:52.804Z,26.00
2022-08-14T03:02:59.337Z,26.60
2022-08-14T03:06:03.389Z,30.20
2022-08-14T03:09:07.138Z,29.00
2022-08-14T03:12:12.874Z,25.50
2022-08-14T03:15:21.693Z,27.33
2022-08-14T03:18:31.614Z,25.75
2022-08-14T03:21:40.641Z,33.80
2022-08-14T03:24:44.065Z,26.60
2022-08-14T03:27:58.913Z,27.60
2022-08-14T03:31:08.451Z,26.00
2022-08-14T03:34:24.381Z,23.20
2022-08-14T03:39:12.233Z,23.75
2022-08-14T03:41:11.054Z,24.40
2022-08-14T03:45:25.240Z,27.00
2022-08-14T03:47:46.325Z,26.00
2022-08-14T03:51:01.484Z,24.00
2022-08-14T03:54:08.364Z,23.50
2022-08-14T03:57:14.398Z,23.20
2022-08-14T04:00:40.429Z,24.60
2022-08-14T04:03:43.851Z,23.40
2022-08-14T04:06:52.577Z,24.00
2022-08-14T04:09:55.943Z,24.80
2022-08-14T04:13:03.648Z,25.75
2022-08-14T04:16:12.751Z,24.50
2022-08-14T04:19:18.867Z,24.00
2022-08-14T04:22:22.528Z,29.00
2022-08-14T04:25:25.929Z,24.75
2022-08-14T04:29:08.626Z,23.00
2022-08-14T04:33:02.887Z,25.00
2022-08-14T04:35:23.522Z,24.50
2022-08-14T04:38:46.966Z,26.00
2022-08-14T04:42:16.078Z,24.40
2022-08-14T04:45:23.429Z,29.00
2022-08-14T04:48:38.781Z,29.25
2022-08-14T04:51:47.062Z,26.00
2022-08-14T04:54:59.705Z,25.00
2022-08-14T04:58:05.537Z,27.25
2022-08-14T05:01:12.747Z,24.25
2022-08-14T05:04:25.192Z,24.80
2022-08-14T05:07:54.431Z,25.20
2022-08-14T05:10:55.409Z,22.60
2022-08-14T05:14:16.853Z,24.60
2022-08-14T05:17:32.076Z,29.00
2022-08-14T05:21:54.598Z,22.00
2022-08-14T05:24:17.799Z,22.60
2022-08-14T05:27:22.776Z,25.00
2022-08-14T05:30:27.726Z,23.80
2022-08-14T05:33:33.409Z,24.60
2022-08-14T05:36:39.595Z,21.50
2022-08-14T05:39:44.896Z,20.00
2022-08-14T05:42:52.924Z,27.20
2022-08-14T05:45:56.707Z,24.00
2022-08-14T05:49:03.115Z,22.00
2022-08-14T05:52:09.831Z,23.60
2022-08-14T05:55:13.452Z,21.00
2022-08-14T05:58:16.937Z,21.25
2022-08-14T06:01:20.772Z,21.60
2022-08-14T06:04:26.812Z,18.60
2022-08-14T06:07:36.477Z,19.00
2022-08-14T06:10:39.738Z,16.60
2022-08-14T06:13:46.120Z,20.00
2022-08-14T06:16:50.030Z,20.50
2022-08-14T06:19:56.493Z,15.40
2022-08-14T06:23:01.343Z,17.00
2022-08-14T06:26:05.409Z,19.40
2022-08-14T06:29:10.976Z,19.75
2022-08-14T06:32:38.452Z,17.60
2022-08-14T06:35:39.338Z,19.20
2022-08-14T06:38:45.178Z,22.60
2022-08-14T06:41:57.987Z,28.00
2022-08-14T06:45:03.548Z,19.33
2022-08-14T06:48:17.222Z,18.80
2022-08-14T06:51:21.143Z,15.20
2022-08-14T06:54:31.371Z,16.00
2022-08-14T06:57:40.395Z,16.00
2022-08-14T07:01:04.962Z,25.40
2022-08-14T07:04:26.622Z,17.80
2022-08-14T07:07:39.177Z,19.50
2022-08-14T07:10:44.662Z,15.00
2022-08-14T07:13:52.583Z,18.40
2022-08-14T07:16:59.262Z,13.80
2022-08-14T07:20:07.327Z,17.80
2022-08-14T07:23:20.714Z,15.50
2022-08-14T07:26:26.362Z,13.00
2022-08-14T07:29:32.879Z,15.00
2022-08-14T07:32:36.675Z,12.00
2022-08-14T07:35:42.933Z,12.80
2022-08-14T07:39:03.263Z,13.20
2022-08-14T07:42:20.064Z,14.00
2022-08-14T07:45:26.146Z,13.50
2022-08-14T07:48:41.401Z,13.20
2022-08-14T07:51:45.240Z,12.00
2022-08-14T07:54:48.564Z,8.00
2022-08-14T07:57:54.526Z,14.00
2022-08-14T08:01:02.482Z,13.75
2022-08-14T08:04:16.667Z,10.20
2022-08-14T08:07:22.345Z,13.00
2022-08-14T08:10:57.295Z,15.25
2022-08-14T08:14:02.461Z,14.50
2022-08-14T08:17:06.502Z,16.00
2022-08-14T08:20:19.962Z,11.75
2022-08-14T08:23:30.205Z,15.00
2022-08-14T08:26:43.653Z,15.80
2022-08-14T08:29:51.039Z,16.00
2022-08-14T08:32:57.229Z,14.00
2022-08-14T08:36:03.586Z,16.00
2022-08-14T08:39:15.386Z,16.00
2022-08-14T08:42:31.226Z,17.00
2022-08-14T08:45:43.494Z,14.00
2022-08-14T08:48:53.746Z,16.50
2022-08-14T08:52:04.404Z,13.75
2022-08-14T08:55:10.727Z,17.40
2022-08-14T08:58:19.780Z,14.00
2022-08-14T09:01:30.954Z,12.40
2022-08-14T09:04:37.445Z,13.00
2022-08-14T09:07:49.297Z,13.80
2022-08-14T09:11:01.744Z,14.00
2022-08-14T09:14:05.554Z,18.00
2022-08-14T09:17:10.533Z,12.00
2022-08-14T09:20:25.781Z,15.00
2022-08-14T09:23:34.925Z,15.33
2022-08-14T09:26:53.688Z,14.20
2022-08-14T09:29:57.023Z,15.00
2022-08-14T09:33:27.732Z,13.00
2022-08-14T09:36:50.311Z,13.50
2022-08-14T09:40:06.389Z,11.00
2022-08-14T09:43:27.498Z,14.00
2022-08-14T09:46:31.482Z,14.00
2022-08-14T09:49:39.837Z,11.20
2022-08-14T09:52:54.747Z,12.00
2022-08-14T09:56:00.615Z,13.40
2022-08-14T09:59:14.867Z,10.60
2022-08-14T10:02:22.715Z,9.40
2022-08-14T10:05:33.724Z,9.60
2022-08-14T10:08:51.152Z,10.25
2022-08-14T10:11:59.104Z,8.80
2022-08-14T10:15:03.142Z,8.80
2022-08-14T10:18:17.238Z,6.75
2022-08-14T10:21:22.638Z,8.00
2022-08-14T10:24:36.341Z,7.00
2022-08-14T10:27:41.667Z,8.00
2022-08-14T10:30:49.167Z,7.00
2022-08-14T10:34:12.722Z,8.00
2022-08-14T10:37:19.947Z,8.00
2022-08-14T10:40:43.517Z,8.60
2022-08-14T10:44:07.674Z,6.00
2022-08-14T10:48:02.694Z,9.00
2022-08-14T10:51:00.761Z,9.00
2022-08-14T10:54:35.207Z,7.40
2022-08-14T10:57:35.700Z,9.00
2022-08-14T11:00:47.071Z,7.00
2022-08-14T11:03:56.244Z,9.00
2022-08-14T11:07:00.526Z,8.00
2022-08-14T11:10:09.638Z,6.40
2022-08-14T11:13:23.848Z,7.40
2022-08-14T11:16:28.718Z,8.40
2022-08-14T11:19:34.122Z,5.00
2022-08-14T11:22:56.759Z,7.40
2022-08-14T11:26:07.832Z,7.60
2022-08-14T11:29:12.750Z,6.80
2022-08-14T11:32:19.536Z,6.40
2022-08-14T11:35:25.030Z,7.00
2022-08-14T11:38:44.898Z,5.00
2022-08-14T11:41:56.013Z,7.40
2022-08-14T11:45:04.915Z,7.60
2022-08-14T11:49:03.620Z,7.40
2022-08-14T11:51:53.689Z,8.20
2022-08-14T11:55:00.580Z,9.80
2022-08-14T11:58:10.349Z,7.00
2022-08-14T12:01:16.220Z,8.20
2022-08-14T12:04:21.619Z,10.80
2022-08-14T12:07:35.217Z,7.75
2022-08-14T12:10:43.116Z,12.00
2022-08-14T12:13:55.702Z,9.00
2022-08-14T12:17:02.213Z,10.40
2022-08-14T12:20:09.435Z,12.75
2022-08-14T12:23:22.685Z,11.00
2022-08-14T12:26:40.136Z,10.80
2022-08-14T12:29:54.318Z,8.80
2022-08-14T12:32:57.836Z,10.00
2022-08-14T12:36:04.580Z,10.00
2022-08-14T12:39:19.986Z,8.80
2022-08-14T12:42:36.446Z,9.20
2022-08-14T12:45:50.447Z,9.00
2022-08-14T12:48:53.837Z,7.00
2022-08-14T12:52:00.057Z,7.00
2022-08-14T12:55:06.866Z,8.00
2022-08-14T12:58:29.322Z,7.00
2022-08-14T13:02:00.178Z,9.60
2022-08-14T13:05:01.375Z,8.00
2022-08-14T13:08:10.738Z,9.00
2022-08-14T13:11:41.373Z,10.80
2022-08-14T13:14:51.722Z,10.80
2022-08-14T13:18:00.681Z,10.00
2022-08-14T13:21:05.673Z,11.80
2022-08-14T13:24:13.329Z,11.40
2022-08-14T13:27:18.900Z,11.00
2022-08-14T13:30:25.005Z,14.00
2022-08-14T13:33:31.753Z,14.40
2022-08-14T13:36:54.313Z,12.60
2022-08-14T13:39:59.791Z,15.67
2022-08-14T13:43:04.142Z,13.00
2022-08-14T13:46:08.543Z,13.50
2022-08-14T13:49:16.544Z,10.50
2022-08-14T13:52:51.714Z,15.60
2022-08-14T13:55:50.674Z,14.40
2022-08-14T13:58:59.861Z,17.00
2022-08-14T14:02:08.045Z,12.20
2022-08-14T14:05:18.819Z,12.20
2022-08-14T14:08:43.231Z,11.20
2022-08-14T14:11:52.963Z,13.00
2022-08-14T14:14:57.278Z,13.60
2022-08-14T14:18:05.293Z,13.40
2022-08-14T14:21:32.780Z,13.00
2022-08-14T14:24:37.089Z,17.00
2022-08-14T14:27:42.278Z,13.00
2022-08-14T14:30:53.177Z,14.00
2022-08-14T14:34:00.485Z,13.75
2022-08-14T14:37:06.237Z,12.50
2022-08-14T14:40:53.138Z,12.00
2022-08-14T14:43:40.426Z,15.60
2022-08-14T14:46:50.191Z,13.80
2022-08-14T14:49:55.608Z,14.00
2022-08-14T14:53:12.305Z,23.25
2022-08-14T14:56:50.194Z,16.00
2022-08-14T14:59:41.694Z,14.20
2022-08-14T15:02:47.090Z,18.00
2022-08-14T15:05:53.582Z,17.60
2022-08-14T15:08:59.983Z,16.00
2022-08-14T15:12:16.092Z,17.67
2022-08-14T15:15:27.472Z,18.40
2022-08-14T15:18:37.600Z,14.00
2022-08-14T15:21:42.738Z,16.00
2022-08-14T15:24:47.842Z,16.00
2022-08-14T15:27:54.458Z,20.00
2022-08-14T15:30:58.103Z,18.00
2022-08-14T15:34:44.431Z,16.00
2022-08-14T15:37:42.245Z,21.00
2022-08-14T15:40:51.613Z,17.00
2022-08-14T15:44:00.434Z,22.20
2022-08-14T15:47:07.482Z,18.40
2022-08-14T15:50:11.350Z,12.40
2022-08-14T15:53:14.791Z,18.00
2022-08-14T15:56:34.865Z,19.00
2022-08-14T16:00:00.572Z,24.00
2022-08-14T16:03:08.676Z,20.60
2022-08-14T16:06:17.916Z,17.40
2022-08-14T16:09:21.460Z,21.00
2022-08-14T16:12:41.831Z,18.00
2022-08-14T16:15:53.158Z,19.40
2022-08-14T16:18:59.010Z,18.40
2022-08-14T16:22:59.466Z,17.20
2022-08-14T16:25:34.542Z,21.20
2022-08-14T16:28:40.524Z,17.25
2022-08-14T16:31:47.587Z,20.00
2022-08-14T16:34:54.876Z,21.00
2022-08-14T16:38:00.303Z,21.25
2022-08-14T16:41:27.692Z,19.50
2022-08-14T16:44:41.088Z,22.00
2022-08-14T16:47:47.861Z,23.60
2022-08-14T16:50:53.974Z,21.00
2022-08-14T16:54:00.485Z,23.40
2022-08-14T16:57:21.044Z,25.00
2022-08-14T17:00:42.959Z,19.00
2022-08-14T17:03:59.563Z,21.20
2022-08-14T17:07:03.811Z,25.50
2022-08-14T17:10:09.551Z,21.00
2022-08-14T17:13:20.837Z,23.00
2022-08-14T17:16:37.914Z,22.40
2022-08-14T17:19:41.848Z,22.00
2022-08-14T17:22:48.456Z,24.40
2022-08-14T17:25:51.673Z,27.00
2022-08-14T17:29:06.497Z,23.00
2022-08-14T17:35:57.407Z,21.40
2022-08-14T17:39:06.464Z,25.40
2022-08-14T17:42:13.398Z,22.00
2022-08-14T17:45:18.906Z,25.00
2022-08-14T17:49:15.595Z,22.00
2022-08-14T17:52:07.543Z,21.00
2022-08-14T17:56:03.113Z,21.00
2022-08-14T17:58:47.745Z,24.00
2022-08-14T18:01:51.835Z,19.00
2022-08-14T18:05:00.228Z,27.60
2022-08-14T18:08:32.867Z,25.00
2022-08-14T18:11:45.921Z,20.50
2022-08-14T18:14:52.511Z,23.20
2022-08-14T18:17:57.696Z,20.50
2022-08-14T18:21:40.263Z,18.00
2022-08-14T18:24:29.554Z,24.00
2022-08-14T18:27:38.237Z,25.50
2022-08-14T18:30:58.712Z,21.00
2022-08-14T18:34:11.872Z,22.60
2022-08-14T18:37:22.084Z,24.40
2022-08-14T18:40:34.353Z,26.20
2022-08-14T18:43:44.702Z,27.00
2022-08-14T18:47:22.765Z,27.50
2022-08-14T18:50:30.752Z,28.80
2022-08-14T18:53:55.067Z,24.00
2022-08-14T18:57:00.326Z,20.00
2022-08-14T19:00:43.265Z,19.00
2022-08-14T19:03:56.217Z,28.00
2022-08-14T19:07:16.488Z,24.50
2022-08-14T19:10:37.631Z,23.75
2022-08-14T19:13:48.532Z,25.00
2022-08-14T19:16:54.822Z,26.00
2022-08-14T19:20:07.684Z,22.20
2022-08-14T19:23:18.194Z,23.50
2022-08-14T19:26:34.661Z,22.00
2022-08-14T19:29:41.064Z,25.40
2022-08-14T19:32:44.453Z,23.20
2022-08-14T19:35:59.652Z,23.40
2022-08-14T19:39:04.782Z,26.00
2022-08-14T19:42:12.749Z,23.60
2022-08-14T19:45:16.774Z,24.40
2022-08-14T19:48:22.261Z,23.00
2022-08-14T19:51:32.570Z,25.00
2022-08-14T19:54:37.793Z,25.50
2022-08-14T19:57:42.499Z,31.67
2022-08-14T20:00:57.480Z,25.60
2022-08-14T20:04:02.809Z,26.00
2022-08-14T20:07:09.091Z,26.00
2022-08-14T20:11:04.106Z,30.67
2022-08-14T20:14:04.134Z,24.80
2022-08-14T20:17:17.514Z,29.00
2022-08-14T20:20:30.817Z,30.60
2022-08-14T20:23:38.214Z,24.00
2022-08-14T20:26:46.971Z,31.40
2022-08-14T20:30:29.610Z,26.20
2022-08-14T20:33:47.734Z,29.00
2022-08-14T20:36:51.711Z,30.00
2022-08-14T20:39:55.802Z,27.67
2022-08-14T20:43:16.413Z,28.25
2022-08-14T20:46:29.757Z,24.80
2022-08-14T20:49:36.449Z,26.00
2022-08-14T20:52:42.386Z,30.40
2022-08-14T20:55:47.884Z,23.00
2022-08-14T20:58:56.822Z,29.40
2022-08-14T21:02:29.396Z,23.25
2022-08-14T21:05:34.577Z,30.00
2022-08-14T21:08:38.293Z,28.00
2022-08-14T21:11:43.781Z,30.40
2022-08-14T21:15:11.113Z,29.00
2022-08-14T21:18:16.797Z,28.00
2022-08-14T21:21:25.235Z,27.00
2022-08-14T21:24:47.675Z,29.00
2022-08-14T21:27:57.039Z,31.00
2022-08-14T21:31:02.487Z,25.00
2022-08-14T21:34:27.634Z,28.00
2022-08-14T21:37:31.918Z,23.40
2022-08-14T21:40:41.465Z,29.40
2022-08-14T21:43:46.435Z,25.50
2022-08-14T21:46:53.412Z,23.80
2022-08-14T21:49:58.729Z,25.60
2022-08-14T21:53:03.836Z,27.50
2022-08-14T21:56:11.639Z,27.40
2022-08-14T21:59:18.825Z,25.00
2022-08-14T22:02:32.791Z,32.50
2022-08-14T22:05:38.480Z,30.00
2022-08-14T22:08:45.862Z,26.40
2022-08-14T22:11:56.699Z,29.00
2022-08-14T22:15:00.334Z,29.40
2022-08-14T22:18:06.387Z,28.40
2022-08-14T22:21:16.579Z,27.00
2022-08-14T22:24:37.564Z,28.00
2022-08-14T22:27:55.601Z,24.00
2022-08-14T22:31:00.442Z,26.00
2022-08-14T22:34:05.391Z,24.00
2022-08-14T22:37:10.044Z,24.00
2022-08-14T22:40:54.708Z,27.00
2022-08-14T22:43:38.833Z,26.00
2022-08-14T22:46:43.713Z,24.20
2022-08-14T22:50:31.315Z,26.40
2022-08-14T22:53:13.473Z,22.40
2022-08-14T22:56:20.882Z,28.40
2022-08-14T22:59:36.817Z,12.60
2022-08-14T23:02:43.841Z,29.00
2022-08-14T23:05:52.792Z,27.80
2022-08-14T23:09:34.885Z,21.00
2022-08-14T23:12:27.432Z,22.60
2022-08-14T23:15:33.594Z,24.00
2022-08-14T23:18:38.998Z,26.60
2022-08-14T23:21:46.370Z,22.75
2022-08-14T23:24:53.261Z,25.00
2022-08-14T23:28:03.373Z,20.00
2022-08-14T23:31:09.954Z,22.25
2022-08-14T23:34:20.966Z,19.60
2022-08-14T23:37:27.551Z,22.80
2022-08-14T23:40:32.725Z,27.60
2022-08-14T23:43:39.048Z,25.40
2022-08-14T23:46:44.220Z,21.00
2022-08-14T23:50:01.375Z,27.00
2022-08-14T23:53:28.291Z,26.00
2022-08-14T23:56:42.751Z,22.00
2022-08-14T23:59:54.378Z,22.00
